LFMN 200000Z 34003KT CAVOK 21/11 Q1025 NOSIG LFMN 192330Z 34004KT CAVOK 21/12 Q1026 NOSIG LFMN 192300Z 34005KT CAVOK 21/13 Q1026 NOSIG LFMN 192230Z 33005KT CAVOK 21/13 Q1026 NOSIG LFMN 192200Z 32006KT CAVOK 21/14 Q1026 NOSIG LFMN 192130Z 31003KT CAVOK 21/14 Q1026 NOSIG LFMN 192100Z VRB02KT CAVOK 21/15 Q1025 NOSIG LFMN 192030Z 00000KT CAVOK 21/17 Q1025 NOSIG LFMN 192000Z 00000KT CAVOK 21/18 Q1025 NOSIG LFMN 191930Z 00000KT CAVOK 21/17 Q1025 NOSIG LFMN 191900Z 06002KT CAVOK 21/18 Q1025 NOSIG LFMN 191830Z 17002KT CAVOK 22/18 Q1025 NOSIG LFMN 191800Z 18002KT CAVOK 22/18 Q1024 NOSIG LFMN 191730Z VRB02KT CAVOK 23/19 Q1024 NOSIG LFMN 191700Z 18003KT CAVOK 23/18 Q1024 NOSIG LFMN 191630Z 19004KT CAVOK 23/18 Q1024 NOSIG LFMN 191600Z 18003KT CAVOK 23/18 Q1024 NOSIG LFMN 191530Z 17003KT CAVOK 23/18 Q1024 NOSIG LFMN 191500Z 18005KT CAVOK 23/18 Q1024 NOSIG LFMN 191430Z 18005KT CAVOK 23/17 Q1025 NOSIG LFMN 191400Z 17004KT CAVOK 23/17 Q1025 NOSIG LFMN 191330Z 16005KT CAVOK 24/16 Q1025 NOSIG LFMN 191300Z 16005KT CAVOK 24/15 Q1025 NOSIG LFMN 191230Z 16005KT CAVOK 24/14 Q1025 NOSIG LFMN 191130Z 17004KT CAVOK 24/13 Q1025 NOSIG LFMN 191100Z 13003KT 090V160 CAVOK 24/13 Q1025 NOSIG LFMN 191030Z 11004KT CAVOK 24/13 Q1026 NOSIG LFMN 191000Z 11004KT CAVOK 24/11 Q1026 NOSIG LFMN 190930Z 10004KT 070V130 CAVOK 24/11 Q1026 NOSIG LFMN 190900Z 11005KT CAVOK 25/10 Q1026 NOSIG LFMN 190830Z 08008KT CAVOK 24/13 Q1026 NOSIG LFMN 190800Z 07010KT CAVOK 24/13 Q1025 NOSIG LFMN 190730Z 08009KT CAVOK 24/13 Q1025 NOSIG LFMN 190711Z 08010KT CAVOK 24/13 Q1025 NOSIG LFMN 190630Z 08014KT CAVOK 23/13 Q1025 NOSIG LFMN 190600Z 34003KT 310V060 CAVOK 23/14 Q1024 NOSIG LFMN 190530Z 33005KT CAVOK 22/14 Q1024 NOSIG LFMN 190500Z 35003KT 280V080 CAVOK 22/14 Q1024 NOSIG LFMN 190430Z 35004KT 310V060 CAVOK 21/14 Q1023 NOSIG LFMN 190400Z 33005KT 310V020 CAVOK 21/14 Q1023 NOSIG LFMN 190330Z 33005KT CAVOK 21/14 Q1023 NOSIG LFMN 190300Z 32003KT CAVOK 21/14 Q1023 NOSIG LFMN 190230Z 33007KT CAVOK 21/15 Q1023 NOSIG LFMN 190200Z 32005KT 9999 FEW100 BKN260 20/15 Q1023 NOSIG LFMN 190130Z 27004KT 9999 FEW100 BKN260 19/16 Q1023 NOSIG LFMN 190100Z VRB03KT 9999 FEW100 BKN260 20/17 Q1022 NOSIG LFMN 190030Z VRB01KT CAVOK 20/17 Q1022 NOSIG LFMN 190000Z 05003KT CAVOK 21/17 Q1022 NOSIG LFMN 182330Z 09003KT CAVOK 21/17 Q1022 NOSIG LFMN 182300Z 00000KT CAVOK 22/16 Q1022 NOSIG LFMN 182230Z 04003KT CAVOK 22/17 Q1022 NOSIG LFMN 182200Z 00000KT CAVOK 21/17 Q1022 NOSIG LFMN 182130Z 00000KT CAVOK 21/17 Q1022 NOSIG LFMN 182100Z 00000KT CAVOK 21/17 Q1021 NOSIG LFMN 182030Z 00000KT CAVOK 21/18 Q1021 NOSIG LFMN 182000Z 19002KT CAVOK 21/18 Q1021 NOSIG LFMN 181930Z 00000KT CAVOK 21/18 Q1021 NOSIG LFMN 181900Z VRB02KT CAVOK 21/18 Q1021 NOSIG LFMN 181830Z 11004KT 070V140 CAVOK 21/18 Q1020 NOSIG LFMN 181800Z 10005KT CAVOK 21/19 Q1020 NOSIG LFMN 181730Z 12003KT CAVOK 21/18 Q1020 NOSIG LFMN 181700Z 09003KT CAVOK 21/17 Q1020 NOSIG LFMN 181630Z 08003KT CAVOK 21/17 Q1020 NOSIG LFMN 181600Z 00000KT CAVOK 21/18 Q1020 NOSIG LFMN 181530Z VRB02KT CAVOK 21/18 Q1020 NOSIG LFMN 181500Z 11004KT CAVOK 22/18 Q1020 NOSIG LFMN 181430Z 12005KT CAVOK 22/18 Q1020 NOSIG LFMN 181400Z 15003KT CAVOK 22/18 Q1020 NOSIG LFMN 181330Z 16004KT CAVOK 22/18 Q1020 NOSIG LFMN 181300Z 16004KT 130V190 CAVOK 22/18 Q1020 NOSIG LFMN 181230Z VRB03KT CAVOK 22/18 Q1020 NOSIG

METAR Messwerte "NICE/COTE D'AZUR" LFMN

Zurück zur Übersicht

Ortsname
Ländercode / m ü. NN
Zeit Temperatur Taupunkt Rel.
Luftfeuchte
Luftdruck:
Altimeter
NN
Station
Wind in Beaufort
(Knoten)
Sichtweite
(Meter)
Wolken
(Meter über Grund)
Wettererscheinung
NICE/COTE D'AZUR
FR 4
Fr 20.05. 02:00211153 %1025
1025
1025
NNW 2 (3)>= 10000Nicht signifikant 
NICE/COTE D'AZUR
FR 4
Fr 20.05. 01:30211256 %1026
1026
1026
NNW 2 (4)>= 10000Nicht signifikant 
NICE/COTE D'AZUR
FR 4
Fr 20.05. 01:00211360 %1026
1026
1026
NNW 2 (5)>= 10000Nicht signifikant 
NICE/COTE D'AZUR
FR 4
Fr 20.05. 00:30211360 %1026
1026
1026
NNW 2 (5)>= 10000Nicht signifikant 
NICE/COTE D'AZUR
FR 4
Fr 20.05. 00:00211464 %1026
1026
1026
NW 2 (6)>= 10000Nicht signifikant 
NICE/COTE D'AZUR
FR 4
Do 19.05. 23:30211464 %1026
1026
1026
NW 2 (3)>= 10000Nicht signifikant 
NICE/COTE D'AZUR
FR 4
Do 19.05. 23:00211569 %1025
1025
1025
Uml 1 (2)>= 10000Nicht signifikant 
NICE/COTE D'AZUR
FR 4
Do 19.05. 22:30211778 %1025
1025
1025
Windstill>= 10000Nicht signifikant 
NICE/COTE D'AZUR
FR 4
Do 19.05. 22:00211883 %1025
1025
1025
Windstill>= 10000Nicht signifikant 
NICE/COTE D'AZUR
FR 4
Do 19.05. 21:30211778 %1025
1025
1025
Windstill>= 10000Nicht signifikant 
NICE/COTE D'AZUR
FR 4
Do 19.05. 21:00211883 %1025
1025
1025
ONO 1 (2)>= 10000Nicht signifikant 
NICE/COTE D'AZUR
FR 4
Do 19.05. 20:30221878 %1025
1025
1025
S 1 (2)>= 10000Nicht signifikant 
NICE/COTE D'AZUR
FR 4
Do 19.05. 20:00221878 %1024
1024
1024
S 1 (2)>= 10000Nicht signifikant 
NICE/COTE D'AZUR
FR 4
Do 19.05. 19:30231978 %1024
1024
1024
Uml 1 (2)>= 10000Nicht signifikant 
NICE/COTE D'AZUR
FR 4
Do 19.05. 19:00231873 %1024
1024
1024
S 2 (3)>= 10000Nicht signifikant 
NICE/COTE D'AZUR
FR 4
Do 19.05. 18:30231873 %1024
1024
1024
S 2 (4)>= 10000Nicht signifikant 
NICE/COTE D'AZUR
FR 4
Do 19.05. 18:00231873 %1024
1024
1024
S 2 (3)>= 10000Nicht signifikant 
NICE/COTE D'AZUR
FR 4
Do 19.05. 17:30231873 %1024
1024
1024
S 2 (3)>= 10000Nicht signifikant 
NICE/COTE D'AZUR
FR 4
Do 19.05. 17:00231873 %1024
1024
1024
S 2 (5)>= 10000Nicht signifikant 
NICE/COTE D'AZUR
FR 4
Do 19.05. 16:30231769 %1025
1025
1025
S 2 (5)>= 10000Nicht signifikant 
NICE/COTE D'AZUR
FR 4
Do 19.05. 16:00231769 %1025
1025
1025
S 2 (4)>= 10000Nicht signifikant 
NICE/COTE D'AZUR
FR 4
Do 19.05. 15:30241661 %1025
1025
1025
SSO 2 (5)>= 10000Nicht signifikant 
NICE/COTE D'AZUR
FR 4
Do 19.05. 15:00241557 %1025
1025
1025
SSO 2 (5)>= 10000Nicht signifikant 
NICE/COTE D'AZUR
FR 4
Do 19.05. 14:30241454 %1025
1025
1025
SSO 2 (5)>= 10000Nicht signifikant 
NICE/COTE D'AZUR
FR 4
Do 19.05. 13:30241350 %1025
1025
1025
S 2 (4)>= 10000Nicht signifikant 
NICE/COTE D'AZUR
FR 4
Do 19.05. 13:00241350 %1025
1025
1025
SO 2 (3)
O - SSO
>= 10000Nicht signifikant 
NICE/COTE D'AZUR
FR 4
Do 19.05. 12:30241350 %1026
1026
1026
OSO 2 (4)>= 10000Nicht signifikant 
NICE/COTE D'AZUR
FR 4
Do 19.05. 12:00241144 %1026
1026
1026
OSO 2 (4)>= 10000Nicht signifikant 
NICE/COTE D'AZUR
FR 4
Do 19.05. 11:30241144 %1026
1026
1026
O 2 (4)
ONO - SO
>= 10000Nicht signifikant 
NICE/COTE D'AZUR
FR 4
Do 19.05. 11:00251039 %1026
1026
1026
OSO 2 (5)>= 10000Nicht signifikant 
NICE/COTE D'AZUR
FR 4
Do 19.05. 10:30241350 %1026
1026
1026
O 3 (8)>= 10000Nicht signifikant 
NICE/COTE D'AZUR
FR 4
Do 19.05. 10:00241350 %1025
1025
1025
ONO 3 (10)>= 10000Nicht signifikant 
NICE/COTE D'AZUR
FR 4
Do 19.05. 09:30241350 %1025
1025
1025
O 3 (9)>= 10000Nicht signifikant 
NICE/COTE D'AZUR
FR 4
Do 19.05. 09:11241350 %1025
1025
1025
O 3 (10)>= 10000Nicht signifikant 
NICE/COTE D'AZUR
FR 4
Do 19.05. 08:30231353 %1025
1025
1025
O 4 (14)>= 10000Nicht signifikant 
NICE/COTE D'AZUR
FR 4
Do 19.05. 08:00231457 %1024
1024
1024
NNW 2 (3)
NW - ONO
>= 10000Nicht signifikant 
NICE/COTE D'AZUR
FR 4
Do 19.05. 07:30221460 %1024
1024
1024
NNW 2 (5)>= 10000Nicht signifikant 
NICE/COTE D'AZUR
FR 4
Do 19.05. 07:00221460 %1024
1024
1024
N 2 (3)
W - O
>= 10000Nicht signifikant 
NICE/COTE D'AZUR
FR 4
Do 19.05. 06:30211464 %1023
1023
1023
N 2 (4)
NW - ONO
>= 10000Nicht signifikant 
NICE/COTE D'AZUR
FR 4
Do 19.05. 06:00211464 %1023
1023
1023
NNW 2 (5)
NW - NNO
>= 10000Nicht signifikant 
NICE/COTE D'AZUR
FR 4
Do 19.05. 05:30211464 %1023
1023
1023
NNW 2 (5)>= 10000Nicht signifikant 
NICE/COTE D'AZUR
FR 4
Do 19.05. 05:00211464 %1023
1023
1023
NW 2 (3)>= 10000Nicht signifikant 
NICE/COTE D'AZUR
FR 4
Do 19.05. 04:30211569 %1023
1023
1023
NNW 3 (7)>= 10000Nicht signifikant 
NICE/COTE D'AZUR
FR 4
Do 19.05. 04:00201573 %1023
1023
1023
NW 2 (5)>= 10000Stark bewölkt (7900)
Leicht bewölkt (3000)
 
NICE/COTE D'AZUR
FR 4
Do 19.05. 03:30191683 %1023
1023
1023
W 2 (4)>= 10000Stark bewölkt (7900)
Leicht bewölkt (3000)
 
NICE/COTE D'AZUR
FR 4
Do 19.05. 03:00201783 %1022
1022
1022
Uml 2 (3)>= 10000Stark bewölkt (7900)
Leicht bewölkt (3000)
 
NICE/COTE D'AZUR
FR 4
Do 19.05. 02:30201783 %1022
1022
1022
Uml 1 (1)>= 10000Nicht signifikant 
NICE/COTE D'AZUR
FR 4
Do 19.05. 02:00211778 %1022
1022
1022
NO 2 (3)>= 10000Nicht signifikant 
NICE/COTE D'AZUR
FR 4
Do 19.05. 01:30211778 %1022
1022
1022
O 2 (3)>= 10000Nicht signifikant 
NICE/COTE D'AZUR
FR 4
Do 19.05. 01:00221669 %1022
1022
1022
Windstill>= 10000Nicht signifikant 
NICE/COTE D'AZUR
FR 4
Do 19.05. 00:30221773 %1022
1022
1022
NO 2 (3)>= 10000Nicht signifikant 
NICE/COTE D'AZUR
FR 4
Do 19.05. 00:00211778 %1022
1022
1022
Windstill>= 10000Nicht signifikant 
NICE/COTE D'AZUR
FR 4
Mi 18.05. 23:30211778 %1022
1022
1022
Windstill>= 10000Nicht signifikant 
NICE/COTE D'AZUR
FR 4
Mi 18.05. 23:00211778 %1021
1021
1021
Windstill>= 10000Nicht signifikant 
NICE/COTE D'AZUR
FR 4
Mi 18.05. 22:30211883 %1021
1021
1021
Windstill>= 10000Nicht signifikant 
NICE/COTE D'AZUR
FR 4
Mi 18.05. 22:00211883 %1021
1021
1021
S 1 (2)>= 10000Nicht signifikant 
NICE/COTE D'AZUR
FR 4
Mi 18.05. 21:30211883 %1021
1021
1021
Windstill>= 10000Nicht signifikant 
NICE/COTE D'AZUR
FR 4
Mi 18.05. 21:00211883 %1021
1021
1021
Uml 1 (2)>= 10000Nicht signifikant 
NICE/COTE D'AZUR
FR 4
Mi 18.05. 20:30211883 %1020
1020
1020
OSO 2 (4)
ONO - SO
>= 10000Nicht signifikant 
NICE/COTE D'AZUR
FR 4
Mi 18.05. 20:00211988 %1020
1020
1020
O 2 (5)>= 10000Nicht signifikant 
NICE/COTE D'AZUR
FR 4
Mi 18.05. 19:30211883 %1020
1020
1020
OSO 2 (3)>= 10000Nicht signifikant 
NICE/COTE D'AZUR
FR 4
Mi 18.05. 19:00211778 %1020
1020
1020
O 2 (3)>= 10000Nicht signifikant 
NICE/COTE D'AZUR
FR 4
Mi 18.05. 18:30211778 %1020
1020
1020
O 2 (3)>= 10000Nicht signifikant 
NICE/COTE D'AZUR
FR 4
Mi 18.05. 18:00211883 %1020
1020
1020
Windstill>= 10000Nicht signifikant 
NICE/COTE D'AZUR
FR 4
Mi 18.05. 17:30211883 %1020
1020
1020
Uml 1 (2)>= 10000Nicht signifikant 
NICE/COTE D'AZUR
FR 4
Mi 18.05. 17:00221878 %1020
1020
1020
OSO 2 (4)>= 10000Nicht signifikant 
NICE/COTE D'AZUR
FR 4
Mi 18.05. 16:30221878 %1020
1020
1020
OSO 2 (5)>= 10000Nicht signifikant 
NICE/COTE D'AZUR
FR 4
Mi 18.05. 16:00221878 %1020
1020
1020
SSO 2 (3)>= 10000Nicht signifikant 
NICE/COTE D'AZUR
FR 4
Mi 18.05. 15:30221878 %1020
1020
1020
SSO 2 (4)>= 10000Nicht signifikant 
NICE/COTE D'AZUR
FR 4
Mi 18.05. 15:00221878 %1020
1020
1020
SSO 2 (4)
SO - S
>= 10000Nicht signifikant 
NICE/COTE D'AZUR
FR 4
Mi 18.05. 14:30221878 %1020
1020
1020
Uml 2 (3)>= 10000Nicht signifikant 

Altimeter: Einstellung am Altimeter (Höhenmesser), die Höhe 0 muss auf diesen Luftdruckwert zeigen, damit das Gerät die Stationshöhe richtig anzeigt.

NN: Luftdruck reduziert auf "Normal Null", auf Meereshöhe, dieser von der Temperatur abhängige Wert wird bisweilen unkorrekt einfach als "Luftdruck" bezeichnet. Eigentlich nur eine fiktive Größe, die es erlaubt, Stationen auf unterschiedlichen Höhen miteinander zu vergleichen.

Station: Realer Luftdruck an der Station.